sensor_id;sensor_type;location;lat;lon;timestamp;pressure;altitude;pressure_sealevel;temperature;humidity
21395;BME280;10858;42.714;23.180;2022-09-17T00:00:49;93602.59;;;17.32;88.55
21395;BME280;10858;42.714;23.180;2022-09-17T00:03:16;93586.16;;;17.35;88.33
21395;BME280;10858;42.714;23.180;2022-09-17T00:05:43;93585.59;;;17.46;87.78
21395;BME280;10858;42.714;23.180;2022-09-17T00:08:12;93578.72;;;17.37;88.35
21395;BME280;10858;42.714;23.180;2022-09-17T00:10:41;93579.53;;;17.31;88.90
21395;BME280;10858;42.714;23.180;2022-09-17T00:13:09;93570.44;;;17.32;89.21
21395;BME280;10858;42.714;23.180;2022-09-17T00:15:40;93564.34;;;17.44;88.92
21395;BME280;10858;42.714;23.180;2022-09-17T00:18:07;93565.59;;;17.48;88.85
21395;BME280;10858;42.714;23.180;2022-09-17T00:20:38;93562.94;;;17.48;88.45
21395;BME280;10858;42.714;23.180;2022-09-17T00:23:04;93583.00;;;17.52;88.58
21395;BME280;10858;42.714;23.180;2022-09-17T00:25:31;93571.53;;;17.65;87.67
21395;BME280;10858;42.714;23.180;2022-09-17T00:27:57;93576.00;;;17.58;87.77
21395;BME280;10858;42.714;23.180;2022-09-17T00:30:24;93572.13;;;17.60;87.69
21395;BME280;10858;42.714;23.180;2022-09-17T00:32:50;93584.53;;;17.68;87.04
21395;BME280;10858;42.714;23.180;2022-09-17T00:35:18;93585.88;;;17.51;87.90
21395;BME280;10858;42.714;23.180;2022-09-17T00:37:44;93587.34;;;17.53;88.25
21395;BME280;10858;42.714;23.180;2022-09-17T00:40:11;93564.41;;;17.85;86.93
21395;BME280;10858;42.714;23.180;2022-09-17T00:42:37;93576.53;;;17.74;86.82
21395;BME280;10858;42.714;23.180;2022-09-17T00:45:03;93588.47;;;17.72;87.73
21395;BME280;10858;42.714;23.180;2022-09-17T00:50:06;93606.97;;;17.60;88.39
21395;BME280;10858;42.714;23.180;2022-09-17T00:52:41;93590.22;;;17.86;87.42
21395;BME280;10858;42.714;23.180;2022-09-17T00:57:40;93590.28;;;17.99;86.31
21395;BME280;10858;42.714;23.180;2022-09-17T01:00:08;93590.75;;;18.09;86.30
21395;BME280;10858;42.714;23.180;2022-09-17T01:02:35;93585.13;;;18.04;86.61
21395;BME280;10858;42.714;23.180;2022-09-17T01:05:01;93581.13;;;18.34;84.85
21395;BME280;10858;42.714;23.180;2022-09-17T01:21:58;93577.50;;;18.08;85.79
21395;BME280;10858;42.714;23.180;2022-09-17T01:38:38;93549.00;;;18.00;87.13
21395;BME280;10858;42.714;23.180;2022-09-17T01:41:19;93568.38;;;17.89;87.76
21395;BME280;10858;42.714;23.180;2022-09-17T01:44:05;93589.41;;;17.86;88.28
21395;BME280;10858;42.714;23.180;2022-09-17T01:46:46;93584.41;;;17.82;87.80
21395;BME280;10858;42.714;23.180;2022-09-17T01:49:17;93603.00;;;17.84;88.27
21395;BME280;10858;42.714;23.180;2022-09-17T01:51:47;93582.63;;;17.96;87.47
21395;BME280;10858;42.714;23.180;2022-09-17T01:54:27;93597.09;;;17.61;89.31
21395;BME280;10858;42.714;23.180;2022-09-17T01:57:18;93549.78;;;17.88;88.58
21395;BME280;10858;42.714;23.180;2022-09-17T02:00:05;93520.91;;;17.90;88.92
21395;BME280;10858;42.714;23.180;2022-09-17T02:02:45;93501.09;;;17.97;88.87
21395;BME280;10858;42.714;23.180;2022-09-17T02:05:29;93476.78;;;18.18;88.43
21395;BME280;10858;42.714;23.180;2022-09-17T02:08:08;93437.78;;;18.42;87.06
21395;BME280;10858;42.714;23.180;2022-09-17T02:10:50;93420.88;;;18.48;86.62
21395;BME280;10858;42.714;23.180;2022-09-17T02:13:28;93424.56;;;18.27;86.70
21395;BME280;10858;42.714;23.180;2022-09-17T02:16:01;93449.38;;;18.42;86.59
21395;BME280;10858;42.714;23.180;2022-09-17T02:19:34;93450.75;;;17.99;88.30
21395;BME280;10858;42.714;23.180;2022-09-17T02:21:45;93456.97;;;18.13;88.19
21395;BME280;10858;42.714;23.180;2022-09-17T02:24:32;93480.75;;;18.29;87.06
21395;BME280;10858;42.714;23.180;2022-09-17T02:27:14;93515.59;;;18.16;88.35
21395;BME280;10858;42.714;23.180;2022-09-17T02:29:43;93528.66;;;18.25;87.53
21395;BME280;10858;42.714;23.180;2022-09-17T02:32:11;93494.78;;;18.31;86.95
21395;BME280;10858;42.714;23.180;2022-09-17T02:34:38;93466.69;;;18.27;88.12
21395;BME280;10858;42.714;23.180;2022-09-17T02:37:06;93472.50;;;18.37;87.85
21395;BME280;10858;42.714;23.180;2022-09-17T02:39:33;93485.78;;;18.51;87.00
21395;BME280;10858;42.714;23.180;2022-09-17T02:42:25;93475.66;;;18.53;86.54
21395;BME280;10858;42.714;23.180;2022-09-17T02:45:07;93459.97;;;18.63;86.93
21395;BME280;10858;42.714;23.180;2022-09-17T02:51:11;93435.16;;;18.81;86.08
21395;BME280;10858;42.714;23.180;2022-09-17T02:56:28;93417.19;;;18.68;85.20
21395;BME280;10858;42.714;23.180;2022-09-17T02:59:23;93445.88;;;18.48;86.16
21395;BME280;10858;42.714;23.180;2022-09-17T03:04:26;93446.72;;;18.62;85.74
21395;BME280;10858;42.714;23.180;2022-09-17T03:06:55;93449.41;;;18.55;85.82
21395;BME280;10858;42.714;23.180;2022-09-17T03:09:25;93446.72;;;18.49;87.06
21395;BME280;10858;42.714;23.180;2022-09-17T03:11:51;93418.63;;;18.45;86.80
21395;BME280;10858;42.714;23.180;2022-09-17T03:14:18;93416.50;;;18.40;87.24
21395;BME280;10858;42.714;23.180;2022-09-17T03:16:45;93390.72;;;18.46;87.53
21395;BME280;10858;42.714;23.180;2022-09-17T03:19:12;93380.41;;;18.76;86.63
21395;BME280;10858;42.714;23.180;2022-09-17T03:21:38;93372.09;;;18.90;85.38
21395;BME280;10858;42.714;23.180;2022-09-17T03:24:05;93379.91;;;19.05;84.33
21395;BME280;10858;42.714;23.180;2022-09-17T03:26:33;93367.47;;;19.17;82.82
21395;BME280;10858;42.714;23.180;2022-09-17T03:29:00;93363.72;;;19.31;82.78
21395;BME280;10858;42.714;23.180;2022-09-17T03:31:26;93361.03;;;19.37;82.62
21395;BME280;10858;42.714;23.180;2022-09-17T03:33:54;93359.19;;;19.18;82.84
21395;BME280;10858;42.714;23.180;2022-09-17T03:36:20;93369.28;;;19.36;82.74
21395;BME280;10858;42.714;23.180;2022-09-17T03:38:47;93385.41;;;19.42;83.18
21395;BME280;10858;42.714;23.180;2022-09-17T03:41:13;93392.63;;;19.55;82.23
21395;BME280;10858;42.714;23.180;2022-09-17T03:43:39;93403.66;;;19.27;82.29
21395;BME280;10858;42.714;23.180;2022-09-17T03:46:06;93420.47;;;18.71;84.57
21395;BME280;10858;42.714;23.180;2022-09-17T03:48:32;93410.38;;;18.59;84.78
21395;BME280;10858;42.714;23.180;2022-09-17T03:51:02;93421.88;;;18.40;85.87
21395;BME280;10858;42.714;23.180;2022-09-17T03:53:28;93418.38;;;18.40;86.17
21395;BME280;10858;42.714;23.180;2022-09-17T03:55:58;93434.88;;;18.30;87.15
21395;BME280;10858;42.714;23.180;2022-09-17T03:58:25;93431.44;;;18.49;86.61
21395;BME280;10858;42.714;23.180;2022-09-17T04:00:51;93439.06;;;18.39;87.04
21395;BME280;10858;42.714;23.180;2022-09-17T04:03:20;93436.00;;;18.55;86.57
21395;BME280;10858;42.714;23.180;2022-09-17T04:05:46;93447.75;;;18.54;87.16
21395;BME280;10858;42.714;23.180;2022-09-17T04:08:13;93461.34;;;18.40;87.55
21395;BME280;10858;42.714;23.180;2022-09-17T04:10:40;93454.13;;;18.40;87.76
21395;BME280;10858;42.714;23.180;2022-09-17T04:13:07;93469.44;;;18.46;87.65
21395;BME280;10858;42.714;23.180;2022-09-17T04:15:35;93476.88;;;18.51;88.65
21395;BME280;10858;42.714;23.180;2022-09-17T04:18:02;93487.78;;;18.36;88.07
21395;BME280;10858;42.714;23.180;2022-09-17T04:20:28;93502.03;;;18.37;88.56
21395;BME280;10858;42.714;23.180;2022-09-17T04:22:55;93512.56;;;18.38;89.20
21395;BME280;10858;42.714;23.180;2022-09-17T04:25:21;93511.81;;;18.51;89.42
21395;BME280;10858;42.714;23.180;2022-09-17T04:27:48;93520.69;;;18.45;89.33
21395;BME280;10858;42.714;23.180;2022-09-17T04:30:15;93522.97;;;18.54;89.21
21395;BME280;10858;42.714;23.180;2022-09-17T04:32:45;93535.97;;;18.51;89.58
21395;BME280;10858;42.714;23.180;2022-09-17T04:35:11;93543.00;;;18.52;90.10
21395;BME280;10858;42.714;23.180;2022-09-17T04:37:38;93559.97;;;18.59;90.50
21395;BME280;10858;42.714;23.180;2022-09-17T04:40:05;93559.56;;;18.68;90.23
21395;BME280;10858;42.714;23.180;2022-09-17T04:42:31;93553.41;;;18.88;89.38
21395;BME280;10858;42.714;23.180;2022-09-17T04:44:58;93560.44;;;18.89;89.35
21395;BME280;10858;42.714;23.180;2022-09-17T04:47:24;93568.69;;;18.81;89.92
21395;BME280;10858;42.714;23.180;2022-09-17T04:49:51;93584.59;;;18.76;89.66
21395;BME280;10858;42.714;23.180;2022-09-17T04:52:17;93603.41;;;18.76;89.91
21395;BME280;10858;42.714;23.180;2022-09-17T04:54:44;93611.84;;;18.59;90.73
21395;BME280;10858;42.714;23.180;2022-09-17T04:57:10;93621.50;;;18.54;91.32
21395;BME280;10858;42.714;23.180;2022-09-17T04:59:37;93608.97;;;18.67;90.50
21395;BME280;10858;42.714;23.180;2022-09-17T05:02:03;93599.06;;;18.81;89.98
21395;BME280;10858;42.714;23.180;2022-09-17T05:04:30;93579.84;;;18.84;90.56
21395;BME280;10858;42.714;23.180;2022-09-17T05:06:56;93570.78;;;18.92;89.16
21395;BME280;10858;42.714;23.180;2022-09-17T05:09:22;93575.34;;;18.98;89.75
21395;BME280;10858;42.714;23.180;2022-09-17T05:11:49;93580.72;;;19.11;89.44
21395;BME280;10858;42.714;23.180;2022-09-17T05:14:15;93573.69;;;19.23;88.50
21395;BME280;10858;42.714;23.180;2022-09-17T05:16:41;93577.00;;;19.25;88.32
21395;BME280;10858;42.714;23.180;2022-09-17T05:19:07;93570.38;;;19.21;88.80
21395;BME280;10858;42.714;23.180;2022-09-17T05:21:34;93560.25;;;19.36;88.20
21395;BME280;10858;42.714;23.180;2022-09-17T05:24:00;93563.16;;;19.41;86.97
21395;BME280;10858;42.714;23.180;2022-09-17T05:26:27;93553.00;;;19.30;88.13
21395;BME280;10858;42.714;23.180;2022-09-17T05:28:54;93533.13;;;19.50;87.23
21395;BME280;10858;42.714;23.180;2022-09-17T05:31:20;93559.63;;;19.27;87.80
21395;BME280;10858;42.714;23.180;2022-09-17T05:33:47;93544.72;;;19.25;88.28
21395;BME280;10858;42.714;23.180;2022-09-17T05:36:13;93555.09;;;19.34;87.60
21395;BME280;10858;42.714;23.180;2022-09-17T05:38:39;93550.72;;;19.20;88.65
21395;BME280;10858;42.714;23.180;2022-09-17T05:41:06;93558.97;;;19.32;89.12
21395;BME280;10858;42.714;23.180;2022-09-17T05:43:33;93555.47;;;19.38;88.70
21395;BME280;10858;42.714;23.180;2022-09-17T05:46:03;93547.81;;;19.55;87.40
21395;BME280;10858;42.714;23.180;2022-09-17T05:48:30;93539.13;;;19.52;87.11
21395;BME280;10858;42.714;23.180;2022-09-17T05:50:57;93537.69;;;19.50;88.02
21395;BME280;10858;42.714;23.180;2022-09-17T05:53:23;93536.66;;;19.51;87.82
21395;BME280;10858;42.714;23.180;2022-09-17T05:55:50;93541.81;;;19.59;87.68
21395;BME280;10858;42.714;23.180;2022-09-17T05:58:18;93548.81;;;19.73;87.43
21395;BME280;10858;42.714;23.180;2022-09-17T06:00:45;93551.47;;;19.86;86.47
21395;BME280;10858;42.714;23.180;2022-09-17T06:03:15;93560.00;;;19.77;86.79
21395;BME280;10858;42.714;23.180;2022-09-17T06:05:42;93569.91;;;19.76;86.32
21395;BME280;10858;42.714;23.180;2022-09-17T06:08:09;93570.38;;;19.60;87.02
21395;BME280;10858;42.714;23.180;2022-09-17T06:10:36;93592.09;;;19.65;85.95
21395;BME280;10858;42.714;23.180;2022-09-17T06:13:03;93595.00;;;19.64;85.92
21395;BME280;10858;42.714;23.180;2022-09-17T06:15:29;93604.53;;;19.46;86.47
21395;BME280;10858;42.714;23.180;2022-09-17T06:17:56;93611.97;;;19.38;87.33
21395;BME280;10858;42.714;23.180;2022-09-17T06:20:22;93618.56;;;19.22;87.66
21395;BME280;10858;42.714;23.180;2022-09-17T06:22:53;93636.13;;;19.05;88.02
21395;BME280;10858;42.714;23.180;2022-09-17T06:25:21;93643.38;;;19.05;88.68
21395;BME280;10858;42.714;23.180;2022-09-17T06:27:48;93642.34;;;19.32;87.73
21395;BME280;10858;42.714;23.180;2022-09-17T06:30:15;93639.88;;;19.24;87.38
21395;BME280;10858;42.714;23.180;2022-09-17T06:32:41;93634.09;;;19.40;87.05
21395;BME280;10858;42.714;23.180;2022-09-17T06:35:07;93617.97;;;19.40;86.91
21395;BME280;10858;42.714;23.180;2022-09-17T06:37:34;93620.47;;;19.48;86.31
21395;BME280;10858;42.714;23.180;2022-09-17T06:40:05;93622.72;;;19.38;87.36
21395;BME280;10858;42.714;23.180;2022-09-17T06:42:32;93613.00;;;19.70;86.29
21395;BME280;10858;42.714;23.180;2022-09-17T06:44:58;93595.38;;;19.93;84.85
21395;BME280;10858;42.714;23.180;2022-09-17T06:47:25;93593.56;;;19.68;85.63
21395;BME280;10858;42.714;23.180;2022-09-17T06:49:51;93596.66;;;19.45;88.28
21395;BME280;10858;42.714;23.180;2022-09-17T06:52:17;93578.22;;;19.68;87.39
21395;BME280;10858;42.714;23.180;2022-09-17T06:54:44;93568.06;;;19.83;84.25
21395;BME280;10858;42.714;23.180;2022-09-17T06:57:10;93570.56;;;19.52;86.60
21395;BME280;10858;42.714;23.180;2022-09-17T06:59:36;93566.25;;;19.51;87.07
21395;BME280;10858;42.714;23.180;2022-09-17T07:02:02;93550.91;;;19.71;86.50
21395;BME280;10858;42.714;23.180;2022-09-17T07:04:29;93538.44;;;19.83;86.77
21395;BME280;10858;42.714;23.180;2022-09-17T07:06:55;93524.66;;;20.17;86.48
21395;BME280;10858;42.714;23.180;2022-09-17T07:09:21;93526.03;;;20.40;87.05
21395;BME280;10858;42.714;23.180;2022-09-17T07:11:48;93525.97;;;20.84;84.96
21395;BME280;10858;42.714;23.180;2022-09-17T07:14:14;93526.34;;;21.43;82.40
21395;BME280;10858;42.714;23.180;2022-09-17T07:16:40;93502.72;;;22.18;78.80
21395;BME280;10858;42.714;23.180;2022-09-17T07:19:07;93489.00;;;23.08;74.53
21395;BME280;10858;42.714;23.180;2022-09-17T07:21:33;93499.22;;;24.33;65.97
21395;BME280;10858;42.714;23.180;2022-09-17T07:24:00;93531.09;;;26.22;64.01
21395;BME280;10858;42.714;23.180;2022-09-17T07:26:26;93524.31;;;26.41;59.70
21395;BME280;10858;42.714;23.180;2022-09-17T07:28:52;93524.50;;;27.00;58.75
21395;BME280;10858;42.714;23.180;2022-09-17T07:31:18;93518.47;;;26.98;56.89
21395;BME280;10858;42.714;23.180;2022-09-17T07:33:45;93514.75;;;26.60;57.73
21395;BME280;10858;42.714;23.180;2022-09-17T07:36:12;93502.63;;;26.08;55.23
21395;BME280;10858;42.714;23.180;2022-09-17T07:38:39;93516.38;;;26.01;56.09
21395;BME280;10858;42.714;23.180;2022-09-17T07:41:12;93513.47;;;26.25;54.11
21395;BME280;10858;42.714;23.180;2022-09-17T07:43:39;93509.69;;;26.47;57.04
21395;BME280;10858;42.714;23.180;2022-09-17T07:46:07;93510.13;;;26.61;59.52
21395;BME280;10858;42.714;23.180;2022-09-17T07:48:38;93515.06;;;26.42;58.94
21395;BME280;10858;42.714;23.180;2022-09-17T07:51:04;93519.97;;;26.83;54.88
21395;BME280;10858;42.714;23.180;2022-09-17T07:53:30;93520.75;;;26.62;55.27
21395;BME280;10858;42.714;23.180;2022-09-17T07:55:58;93510.66;;;27.33;53.83
21395;BME280;10858;42.714;23.180;2022-09-17T07:58:32;93510.06;;;27.89;49.93
21395;BME280;10858;42.714;23.180;2022-09-17T08:01:07;93509.63;;;27.65;51.36
21395;BME280;10858;42.714;23.180;2022-09-17T08:03:35;93494.41;;;27.74;53.21
21395;BME280;10858;42.714;23.180;2022-09-17T08:06:36;93493.34;;;27.75;51.21
21395;BME280;10858;42.714;23.180;2022-09-17T08:09:03;93489.38;;;27.56;49.58
21395;BME280;10858;42.714;23.180;2022-09-17T08:11:30;93491.34;;;27.34;52.50
21395;BME280;10858;42.714;23.180;2022-09-17T08:13:56;93483.53;;;27.43;51.46
21395;BME280;10858;42.714;23.180;2022-09-17T08:16:23;93481.47;;;27.92;52.47
21395;BME280;10858;42.714;23.180;2022-09-17T08:18:54;93488.53;;;27.88;49.92
21395;BME280;10858;42.714;23.180;2022-09-17T08:21:21;93480.34;;;28.29;48.30
21395;BME280;10858;42.714;23.180;2022-09-17T08:23:48;93487.72;;;27.92;50.54
21395;BME280;10858;42.714;23.180;2022-09-17T08:26:17;93489.66;;;28.38;49.44
21395;BME280;10858;42.714;23.180;2022-09-17T08:28:48;93494.56;;;28.93;46.95
21395;BME280;10858;42.714;23.180;2022-09-17T08:31:17;93490.66;;;28.22;48.85
21395;BME280;10858;42.714;23.180;2022-09-17T08:33:44;93491.53;;;27.91;51.01
21395;BME280;10858;42.714;23.180;2022-09-17T08:36:12;93495.03;;;27.50;50.65
21395;BME280;10858;42.714;23.180;2022-09-17T08:38:39;93495.66;;;27.57;50.58
21395;BME280;10858;42.714;23.180;2022-09-17T08:46:10;93485.47;;;27.84;50.96
21395;BME280;10858;42.714;23.180;2022-09-17T08:49:06;93485.59;;;26.77;53.68
21395;BME280;10858;42.714;23.180;2022-09-17T09:02:47;93489.28;;;25.23;58.85
21395;BME280;10858;42.714;23.180;2022-09-17T09:05:26;93491.06;;;25.01;58.71
21395;BME280;10858;42.714;23.180;2022-09-17T09:08:04;93482.31;;;24.55;61.36
21395;BME280;10858;42.714;23.180;2022-09-17T09:10:48;93481.72;;;24.24;61.42
21395;BME280;10858;42.714;23.180;2022-09-17T09:13:19;93494.25;;;23.91;63.44
21395;BME280;10858;42.714;23.180;2022-09-17T09:15:53;93499.06;;;23.65;65.49
21395;BME280;10858;42.714;23.180;2022-09-17T09:18:29;93510.41;;;23.21;70.36
21395;BME280;10858;42.714;23.180;2022-09-17T09:24:07;93515.44;;;22.65;76.77
21395;BME280;10858;42.714;23.180;2022-09-17T09:26:46;93527.94;;;22.30;77.67
21395;BME280;10858;42.714;23.180;2022-09-17T09:34:11;93541.81;;;22.15;81.53
21395;BME280;10858;42.714;23.180;2022-09-17T09:36:39;93539.94;;;22.34;80.66
21395;BME280;10858;42.714;23.180;2022-09-17T09:39:24;93569.81;;;22.21;81.43
21395;BME280;10858;42.714;23.180;2022-09-17T09:44:20;93583.31;;;21.60;83.02
21395;BME280;10858;42.714;23.180;2022-09-17T09:49:58;93581.19;;;21.37;84.18
21395;BME280;10858;42.714;23.180;2022-09-17T09:52:50;93570.91;;;21.52;83.92
21395;BME280;10858;42.714;23.180;2022-09-17T09:55:51;93544.69;;;21.77;81.65
21395;BME280;10858;42.714;23.180;2022-09-17T09:58:40;93518.88;;;21.63;82.02
21395;BME280;10858;42.714;23.180;2022-09-17T10:01:15;93504.97;;;21.66;82.44
21395;BME280;10858;42.714;23.180;2022-09-17T10:03:43;93488.31;;;21.69;82.60
21395;BME280;10858;42.714;23.180;2022-09-17T10:06:14;93468.19;;;21.65;82.60
21395;BME280;10858;42.714;23.180;2022-09-17T10:11:33;93429.31;;;20.87;87.37
21395;BME280;10858;42.714;23.180;2022-09-17T10:17:15;93432.81;;;20.63;87.02
21395;BME280;10858;42.714;23.180;2022-09-17T10:19:44;93419.91;;;20.72;87.79
21395;BME280;10858;42.714;23.180;2022-09-17T10:22:25;93417.59;;;21.00;86.02
21395;BME280;10858;42.714;23.180;2022-09-17T10:24:55;93423.59;;;21.02;85.61
21395;BME280;10858;42.714;23.180;2022-09-17T10:27:32;93429.75;;;21.09;84.36
21395;BME280;10858;42.714;23.180;2022-09-17T10:30:14;93441.94;;;21.18;85.58
21395;BME280;10858;42.714;23.180;2022-09-17T10:32:41;93452.16;;;21.34;84.32
21395;BME280;10858;42.714;23.180;2022-09-17T10:35:25;93444.97;;;21.46;83.84
21395;BME280;10858;42.714;23.180;2022-09-17T10:37:53;93446.59;;;21.47;84.39
21395;BME280;10858;42.714;23.180;2022-09-17T10:42:50;93445.50;;;21.12;85.63
21395;BME280;10858;42.714;23.180;2022-09-17T10:45:42;93434.25;;;21.15;85.02
21395;BME280;10858;42.714;23.180;2022-09-17T10:48:17;93439.44;;;21.35;84.97
21395;BME280;10858;42.714;23.180;2022-09-17T10:50:52;93437.47;;;21.48;82.83
21395;BME280;10858;42.714;23.180;2022-09-17T10:53:20;93447.22;;;21.67;83.27
21395;BME280;10858;42.714;23.180;2022-09-17T11:03:59;93478.50;;;23.00;74.33
21395;BME280;10858;42.714;23.180;2022-09-17T11:12:43;93476.78;;;24.10;71.17
21395;BME280;10858;42.714;23.180;2022-09-17T11:15:32;93467.72;;;24.44;68.10
21395;BME280;10858;42.714;23.180;2022-09-17T11:21:12;93471.63;;;25.71;66.33
21395;BME280;10858;42.714;23.180;2022-09-17T11:32:47;93459.00;;;24.42;65.34
21395;BME280;10858;42.714;23.180;2022-09-17T11:35:22;93455.34;;;23.85;67.22
21395;BME280;10858;42.714;23.180;2022-09-17T11:38:01;93459.50;;;23.53;67.31
21395;BME280;10858;42.714;23.180;2022-09-17T11:43:28;93451.63;;;22.46;70.52
21395;BME280;10858;42.714;23.180;2022-09-17T11:49:07;93421.56;;;21.76;73.65
21395;BME280;10858;42.714;23.180;2022-09-17T11:51:52;93421.41;;;21.35;74.52
21395;BME280;10858;42.714;23.180;2022-09-17T11:54:44;93413.78;;;21.50;75.96
21395;BME280;10858;42.714;23.180;2022-09-17T11:57:17;93408.81;;;21.47;74.84
21395;BME280;10858;42.714;23.180;2022-09-17T12:06:16;93398.81;;;20.87;78.60
21395;BME280;10858;42.714;23.180;2022-09-17T12:09:12;93403.25;;;20.99;78.28
21395;BME280;10858;42.714;23.180;2022-09-17T12:11:46;93386.66;;;20.78;78.94
21395;BME280;10858;42.714;23.180;2022-09-17T12:14:38;93391.78;;;20.86;80.42
21395;BME280;10858;42.714;23.180;2022-09-17T12:20:01;93384.00;;;20.47;79.12
21395;BME280;10858;42.714;23.180;2022-09-17T12:22:33;93374.78;;;20.36;79.34
21395;BME280;10858;42.714;23.180;2022-09-17T12:25:01;93370.78;;;20.45;80.16
21395;BME280;10858;42.714;23.180;2022-09-17T12:27:42;93377.19;;;20.19;80.15
21395;BME280;10858;42.714;23.180;2022-09-17T12:30:22;93375.94;;;20.15;81.20
21395;BME280;10858;42.714;23.180;2022-09-17T12:36:02;93374.06;;;19.78;83.38
21395;BME280;10858;42.714;23.180;2022-09-17T12:42:23;93358.91;;;19.46;84.42
21395;BME280;10858;42.714;23.180;2022-09-17T13:01:44;93331.22;;;19.39;86.94
21395;BME280;10858;42.714;23.180;2022-09-17T13:04:39;93339.03;;;19.54;86.57
21395;BME280;10858;42.714;23.180;2022-09-17T13:10:33;93329.38;;;19.39;85.92
21395;BME280;10858;42.714;23.180;2022-09-17T13:18:55;93302.28;;;19.28;85.96
21395;BME280;10858;42.714;23.180;2022-09-17T13:24:17;93300.59;;;19.40;86.65
21395;BME280;10858;42.714;23.180;2022-09-17T13:26:45;93287.50;;;19.50;85.89
21395;BME280;10858;42.714;23.180;2022-09-17T13:29:12;93285.25;;;19.47;85.42
21395;BME280;10858;42.714;23.180;2022-09-17T13:31:58;93282.59;;;19.40;84.81
21395;BME280;10858;42.714;23.180;2022-09-17T13:34:31;93279.13;;;19.33;85.63
21395;BME280;10858;42.714;23.180;2022-09-17T13:37:16;93265.84;;;19.38;85.32
21395;BME280;10858;42.714;23.180;2022-09-17T13:39:45;93270.22;;;19.33;84.16
21395;BME280;10858;42.714;23.180;2022-09-17T13:47:39;93230.56;;;19.22;84.47
21395;BME280;10858;42.714;23.180;2022-09-17T13:50:34;93220.06;;;19.07;84.93
21395;BME280;10858;42.714;23.180;2022-09-17T13:55:43;93208.13;;;19.41;84.44
21395;BME280;10858;42.714;23.180;2022-09-17T13:58:25;93207.38;;;19.59;83.69
21395;BME280;10858;42.714;23.180;2022-09-17T14:01:10;93204.03;;;19.63;82.18
21395;BME280;10858;42.714;23.180;2022-09-17T14:19:23;93218.59;;;19.80;81.28
21395;BME280;10858;42.714;23.180;2022-09-17T14:35:36;93224.75;;;19.87;77.48
21395;BME280;10858;42.714;23.180;2022-09-17T14:38:33;93200.03;;;19.97;78.59
21395;BME280;10858;42.714;23.180;2022-09-17T14:46:55;93244.41;;;19.88;82.05
21395;BME280;10858;42.714;23.180;2022-09-17T14:49:26;93234.03;;;19.91;81.40
21395;BME280;10858;42.714;23.180;2022-09-17T14:51:54;93222.22;;;19.92;81.73
21395;BME280;10858;42.714;23.180;2022-09-17T14:54:28;93215.94;;;19.98;81.92
21395;BME280;10858;42.714;23.180;2022-09-17T14:56:59;93191.94;;;19.72;82.56
21395;BME280;10858;42.714;23.180;2022-09-17T15:01:58;93194.09;;;19.64;83.28
21395;BME280;10858;42.714;23.180;2022-09-17T15:04:26;93196.81;;;19.57;82.07
21395;BME280;10858;42.714;23.180;2022-09-17T15:07:05;93190.06;;;19.48;83.72
21395;BME280;10858;42.714;23.180;2022-09-17T15:09:32;93190.63;;;19.81;82.01
21395;BME280;10858;42.714;23.180;2022-09-17T15:11:59;93175.69;;;19.85;80.90
21395;BME280;10858;42.714;23.180;2022-09-17T15:14:31;93175.50;;;20.05;78.49
21395;BME280;10858;42.714;23.180;2022-09-17T15:17:00;93161.06;;;19.99;80.47
21395;BME280;10858;42.714;23.180;2022-09-17T15:19:55;93166.84;;;20.03;80.53
21395;BME280;10858;42.714;23.180;2022-09-17T15:22:28;93169.91;;;20.06;79.04
21395;BME280;10858;42.714;23.180;2022-09-17T15:25:03;93170.97;;;20.05;78.98
21395;BME280;10858;42.714;23.180;2022-09-17T15:27:37;93172.44;;;20.01;78.13
21395;BME280;10858;42.714;23.180;2022-09-17T15:30:18;93159.81;;;19.77;79.73
21395;BME280;10858;42.714;23.180;2022-09-17T15:32:53;93161.06;;;19.99;77.88
21395;BME280;10858;42.714;23.180;2022-09-17T15:35:28;93152.25;;;20.10;76.39
21395;BME280;10858;42.714;23.180;2022-09-17T15:38:18;93148.66;;;20.16;75.28
21395;BME280;10858;42.714;23.180;2022-09-17T15:40:46;93147.22;;;20.20;74.76
21395;BME280;10858;42.714;23.180;2022-09-17T15:43:31;93143.50;;;20.21;72.16
21395;BME280;10858;42.714;23.180;2022-09-17T15:46:25;93145.13;;;20.22;72.90
21395;BME280;10858;42.714;23.180;2022-09-17T15:48:53;93134.34;;;20.41;72.17
21395;BME280;10858;42.714;23.180;2022-09-17T15:51:26;93128.66;;;20.49;72.11
21395;BME280;10858;42.714;23.180;2022-09-17T15:54:04;93134.88;;;20.49;71.06
21395;BME280;10858;42.714;23.180;2022-09-17T15:56:33;93123.88;;;20.51;69.80
21395;BME280;10858;42.714;23.180;2022-09-17T15:59:02;93103.91;;;20.40;71.08
21395;BME280;10858;42.714;23.180;2022-09-17T16:09:00;93078.97;;;20.45;70.65
21395;BME280;10858;42.714;23.180;2022-09-17T16:11:30;93099.34;;;20.41;70.70
21395;BME280;10858;42.714;23.180;2022-09-17T16:13:59;93107.41;;;20.41;70.64
21395;BME280;10858;42.714;23.180;2022-09-17T16:16:33;93099.81;;;20.38;69.74
21395;BME280;10858;42.714;23.180;2022-09-17T16:19:00;93096.22;;;20.25;70.53
21395;BME280;10858;42.714;23.180;2022-09-17T16:21:27;93079.00;;;20.26;70.27
21395;BME280;10858;42.714;23.180;2022-09-17T16:23:54;93095.69;;;20.35;69.29
21395;BME280;10858;42.714;23.180;2022-09-17T16:26:26;93098.06;;;20.43;69.01
21395;BME280;10858;42.714;23.180;2022-09-17T16:28:58;93089.59;;;20.58;68.43
21395;BME280;10858;42.714;23.180;2022-09-17T16:31:27;93101.72;;;20.49;69.65
21395;BME280;10858;42.714;23.180;2022-09-17T16:33:54;93105.63;;;20.53;68.92
21395;BME280;10858;42.714;23.180;2022-09-17T16:36:21;93108.91;;;20.37;69.76
21395;BME280;10858;42.714;23.180;2022-09-17T16:38:48;93096.34;;;20.49;69.66
21395;BME280;10858;42.714;23.180;2022-09-17T16:41:14;93082.19;;;20.53;68.82
21395;BME280;10858;42.714;23.180;2022-09-17T16:43:40;93085.25;;;20.57;69.96